메인 페이지
METAR-TAF:

METAR-TAF

공항 :

퀴라소, 네덜란드령 안틸레스

위도: 12-12N, 경도: 068-58W, 고도: 9m

현재 날씨관측

예보는 1 시간 2분 전, 04:00시(UTC)에 발표되었습니다.
동남동11kt
온도 27°C
습도 79%
기압 1015 hPa
시정 10km 이상
고도 2400ft 상공 구름 조금

METAR: TNCC 200400Z 11011KT 9999 FEW024 27/23 Q1015 NOSIG

시각: 01:02 (05:02 UTC)

예보

예보는 7 시간 2분 전, 22:00시(UTC)에 발표되었습니다.
예보 대상 시간: 20일 00시부터 20일 24시까지 (UTC)
14kt
시정 10km 이상
고도 2000ft 상공 구름 보통

TAF: TNCC 192200Z 2000/2024 10014KT 9999 SCT020

4,000개 이상의 공항 관측 자료 및 예보 (METAR 및 TAF 보고).

지도상에서 검색 가능한 기상관측소가 노란 점과 빨간 점으로 표시되어 있습니다.

기상관측소 명을 보려면 표시 위로 마우스를 이동하세요.

날씨 관측과 예보를 보려면 클릭하세요.

지도 변경 : 확대하려면 엑스 표시가 있는 녹색 버튼, 축소하려면 빼기 표시가 있는 녹색 버튼, 다음 페이지의 지도를 보려면 녹색 화살표를 클릭하세요.


METAR-TAF: